Time;durP1;ratioP1;P1;durP2;ratioP2;P2;SDS_P1;SDS_P2;PMS_P1;PMS_P2;Temp;Humidity;BMP_temperature;BMP_pressure;BME280_temperature;BME280_humidity;BME280_pressure;Samples;Min_cycle;Max_cycle;Signal;HPM_P1;HPM_P2
2023/02/25 00:02:13;;;;;;;23.55;4.65;;;;;;;2.53;100.00;100929.38;5208684;28;20020;-76
2023/02/25 00:04:43;;;;;;;15.73;4.20;;;;;;;2.49;100.00;100921.78;5225853;28;20031;-76
2023/02/25 00:07:14;;;;;;;19.13;4.55;;;;;;;2.43;100.00;100922.22;5208103;28;20394;-76
2023/02/25 00:09:45;;;;;;;25.55;6.18;;;;;;;2.45;100.00;100930.91;5207784;28;20017;-76
2023/02/25 00:12:15;;;;;;;25.75;4.47;;;;;;;2.53;100.00;100933.84;5226167;28;20046;-76
2023/02/25 00:14:45;;;;;;;19.67;4.43;;;;;;;2.52;100.00;100935.66;5225746;28;20025;-76
2023/02/25 00:17:16;;;;;;;22.52;4.78;;;;;;;2.57;100.00;100935.31;5207963;28;20383;-76
2023/02/25 00:19:46;;;;;;;24.40;4.63;;;;;;;2.61;100.00;100934.13;5225582;28;20024;-76
2023/02/25 00:22:17;;;;;;;25.13;4.38;;;;;;;2.59;100.00;100936.88;5225319;28;20037;-76
2023/02/25 00:24:52;;;;;;;19.95;3.63;;;;;;;2.59;100.00;100939.53;5226178;28;20039;-76
2023/02/25 00:27:23;;;;;;;11.20;2.70;;;;;;;2.61;100.00;100936.78;5225358;28;20024;-76
2023/02/25 00:29:54;;;;;;;19.90;3.22;;;;;;;2.70;100.00;100938.72;5225698;28;20158;-76
2023/02/25 00:32:24;;;;;;;23.50;4.03;;;;;;;2.75;100.00;100936.59;5225676;28;20021;-76
2023/02/25 00:34:56;;;;;;;22.90;2.85;;;;;;;2.80;100.00;100939.75;5207505;28;20025;-76
2023/02/25 00:37:27;;;;;;;10.75;2.13;;;;;;;2.91;100.00;100935.44;5224510;28;20025;-76
2023/02/25 00:39:57;;;;;;;21.95;2.72;;;;;;;2.95;100.00;100935.09;5225559;28;20027;-75
2023/02/25 00:42:28;;;;;;;16.27;2.25;;;;;;;2.99;100.00;100930.44;5225450;28;20032;-76
2023/02/25 00:44:58;;;;;;;21.35;2.35;;;;;;;3.06;100.00;100931.63;5224968;28;20074;-75
2023/02/25 00:47:28;;;;;;;26.98;2.42;;;;;;;3.10;100.00;100930.44;5224920;28;20032;-76
2023/02/25 00:49:59;;;;;;;21.67;2.25;;;;;;;3.14;100.00;100931.91;5225172;28;20081;-76
2023/02/25 00:52:29;;;;;;;13.27;2.42;;;;;;;3.11;100.00;100935.66;5207890;28;20024;-75
2023/02/25 00:55:01;;;;;;;13.15;2.60;;;;;;;3.06;100.00;100931.63;5207355;28;20118;-75
2023/02/25 00:57:32;;;;;;;17.48;2.10;;;;;;;3.03;100.00;100937.19;5224642;28;20432;-75
2023/02/25 01:02:52;;;;;;;14.10;2.28;;;;;;;2.95;100.00;100936.91;5224981;28;20701;-76
2023/02/25 01:05:22;;;;;;;14.50;2.13;;;;;;;2.92;100.00;100939.81;5227352;28;20029;-75
2023/02/25 01:07:53;;;;;;;22.33;2.63;;;;;;;2.83;100.00;100944.81;5225163;28;20040;-75
2023/02/25 01:10:23;;;;;;;12.35;2.05;;;;;;;2.82;100.00;100945.78;5207050;28;20020;-75
2023/02/25 01:12:53;;;;;;;7.25;1.35;;;;;;;2.81;100.00;100944.09;5207389;28;20100;-76
2023/02/25 01:15:24;;;;;;;17.05;4.00;;;;;;;2.87;100.00;100948.09;5207223;28;20520;-75
2023/02/25 01:17:54;;;;;;;12.40;1.98;;;;;;;2.96;100.00;100943.91;5190200;28;20576;-75
2023/02/25 01:20:25;;;;;;;12.02;1.73;;;;;;;3.10;100.00;100941.91;5224591;28;20393;-75
2023/02/25 01:22:56;;;;;;;13.63;1.80;;;;;;;3.25;100.00;100950.50;5206667;28;20417;-75
2023/02/25 01:25:26;;;;;;;16.02;1.95;;;;;;;3.34;100.00;100936.53;5224524;28;20115;-75
2023/02/25 01:27:57;;;;;;;13.68;1.88;;;;;;;3.38;100.00;100930.03;5206646;28;20028;-75
2023/02/25 01:30:27;;;;;;;14.82;1.70;;;;;;;3.45;100.00;100932.22;5224411;28;20069;-75
2023/02/25 01:32:58;;;;;;;9.80;1.60;;;;;;;3.48;100.00;100926.69;5206527;28;20393;-75
2023/02/25 01:35:28;;;;;;;12.10;1.73;;;;;;;3.48;100.00;100926.69;5224253;28;20033;-75
2023/02/25 01:37:58;;;;;;;21.48;1.65;;;;;;;3.44;100.00;100934.03;5224222;28;20025;-75
2023/02/25 01:40:29;;;;;;;8.98;1.67;;;;;;;3.43;100.00;100934.16;5206319;28;20108;-75
2023/02/25 01:43:00;;;;;;;8.60;1.65;;;;;;;3.35;100.00;100932.91;5224496;28;20063;-75
2023/02/25 01:45:31;;;;;;;13.75;1.75;;;;;;;3.36;100.00;100937.28;5206092;28;20566;-75
2023/02/25 01:48:08;;;;;;;16.05;1.83;;;;;;;3.37;100.00;100935.47;5222840;28;20028;-75
2023/02/25 01:50:45;;;;;;;12.13;1.70;;;;;;;3.30;100.00;100945.69;5193949;28;20049;-75
2023/02/25 01:53:22;;;;;;;13.77;1.83;;;;;;;3.29;100.00;100941.34;5224226;28;20071;-75
2023/02/25 01:55:56;;;;;;;11.48;1.63;;;;;;;3.26;100.00;100941.59;5223992;28;20043;-75
2023/02/25 01:58:27;;;;;;;16.85;3.65;;;;;;;3.24;100.00;100945.31;5223408;28;20255;-75
2023/02/25 02:00:59;;;;;;;10.18;1.70;;;;;;;3.21;100.00;100951.69;5224132;28;20064;-75
2023/02/25 02:03:32;;;;;;;20.02;2.95;;;;;;;3.11;100.00;100958.66;5217038;28;20150;-75
2023/02/25 02:06:10;;;;;;;16.27;1.65;;;;;;;3.02;100.00;100957.56;5217800;28;20048;-75
2023/02/25 02:08:43;;;;;;;12.10;1.63;;;;;;;2.99;100.00;100956.94;5223654;28;20035;-75
2023/02/25 02:11:14;;;;;;;18.13;1.70;;;;;;;2.95;100.00;100958.94;5223740;28;20039;-75
2023/02/25 02:13:50;;;;;;;10.52;1.95;;;;;;;2.90;100.00;100955.81;5224119;28;20017;-75
2023/02/25 02:16:43;;;;;;;8.20;1.73;;;;;;;2.86;100.00;100959.63;5223489;28;20033;-75
2023/02/25 02:19:28;;;;;;;11.02;1.85;;;;;;;2.86;100.00;100962.28;5223733;28;20033;-75
2023/02/25 02:22:36;;;;;;;9.00;1.65;;;;;;;2.79;100.00;100958.41;5223812;28;20091;-75
2023/02/25 02:25:46;;;;;;;20.90;2.40;;;;;;;2.84;100.00;100953.63;5223566;28;20036;-75
2023/02/25 02:28:37;;;;;;;12.07;1.98;;;;;;;2.82;100.00;100945.78;5213419;28;20037;-75
2023/02/25 02:31:28;;;;;;;7.50;1.98;;;;;;;2.85;100.00;100958.78;5223923;28;20017;-75
2023/02/25 02:34:35;;;;;;;14.15;2.03;;;;;;;2.83;100.00;100947.47;5223787;28;20079;-75
2023/02/25 02:37:28;;;;;;;13.77;1.70;;;;;;;2.85;100.00;100948.19;5223060;28;20029;-75
2023/02/25 02:40:19;;;;;;;10.13;1.55;;;;;;;2.90;100.00;100952.31;5223702;28;20025;-75
2023/02/25 02:43:22;;;;;;;13.27;2.22;;;;;;;2.92;100.00;100950.41;5213278;28;20021;-75
2023/02/25 02:46:14;;;;;;;16.35;2.60;;;;;;;2.97;100.00;100954.41;5209900;28;20033;-76
2023/02/25 02:49:04;;;;;;;12.35;2.50;;;;;;;3.04;100.00;100954.78;5205646;28;20059;-75
2023/02/25 02:51:42;;;;;;;14.93;2.35;;;;;;;3.01;100.00;100947.03;5223322;28;20036;-75
2023/02/25 02:54:15;;;;;;;14.10;2.35;;;;;;;2.97;100.00;100949.09;5223844;28;20445;-75
2023/02/25 02:56:49;;;;;;;13.35;2.47;;;;;;;2.94;100.00;100949.31;5222845;28;20071;-75
2023/02/25 02:59:58;;;;;;;16.35;3.05;;;;;;;2.93;100.00;100958.22;5224697;28;20078;-75
2023/02/25 03:02:34;;;;;;;14.20;2.88;;;;;;;2.95;100.00;100960.75;5218175;28;20036;-75
2023/02/25 03:05:15;;;;;;;19.00;3.97;;;;;;;2.91;100.00;100956.66;5227795;28;20052;-75
2023/02/25 03:08:15;;;;;;;17.95;3.90;;;;;;;2.90;100.00;100954.97;5226242;28;20027;-75
2023/02/25 03:10:46;;;;;;;17.02;3.53;;;;;;;2.93;100.00;100963.53;5213739;28;20071;-75
2023/02/25 03:13:17;;;;;;;13.35;3.47;;;;;;;2.95;100.00;100963.41;5207659;28;20060;-75
2023/02/25 03:15:50;;;;;;;13.43;3.80;;;;;;;2.91;100.00;100960.13;5207671;28;20037;-75
2023/02/25 03:18:31;;;;;;;22.45;3.63;;;;;;;2.92;100.00;100961.00;5215528;28;20017;-75
2023/02/25 03:21:10;;;;;;;13.75;3.45;;;;;;;2.98;100.00;100955.25;5210629;28;20095;-75
2023/02/25 03:23:45;;;;;;;15.95;3.40;;;;;;;3.06;100.00;100966.97;5206784;28;20066;-75
2023/02/25 03:26:25;;;;;;;21.00;3.17;;;;;;;3.15;100.00;100968.06;5202016;28;20433;-75
2023/02/25 03:28:56;;;;;;;15.88;3.10;;;;;;;3.24;100.00;100961.22;5207045;28;20497;-75
2023/02/25 03:31:48;;;;;;;8.57;2.25;;;;;;;3.34;100.00;100963.06;5206636;28;20127;-75
2023/02/25 03:34:25;;;;;;;11.10;2.70;;;;;;;3.37;100.00;100962.00;5206906;28;20021;-75
2023/02/25 03:37:01;;;;;;;17.08;2.88;;;;;;;3.47;100.00;100962.13;5206708;28;20040;-75
2023/02/25 03:39:37;;;;;;;20.02;3.42;;;;;;;3.56;100.00;100958.75;5188625;28;20025;-75
2023/02/25 03:42:12;;;;;;;15.00;2.17;;;;;;;3.61;100.00;100961.91;5206210;28;20029;-75
2023/02/25 03:44:44;;;;;;;;;;;;;;;3.56;100.00;100966.72;5206714;28;20512;-75
2023/02/25 03:47:17;;;;;;;12.90;2.35;;;;;;;3.53;100.00;100964.31;5205204;28;19909;-75
2023/02/25 03:50:22;;;;;;;12.88;3.10;;;;;;;3.56;100.00;100969.38;5187939;28;20378;-76
2023/02/25 03:52:53;;;;;;;9.98;1.92;;;;;;;3.56;100.00;100969.38;5206146;28;20025;-75
2023/02/25 03:55:24;;;;;;;11.10;1.83;;;;;;;3.53;100.00;100962.50;5206063;28;20029;-75
2023/02/25 03:57:55;;;;;;;18.52;2.33;;;;;;;3.54;100.00;100958.88;5206476;28;20486;-75
2023/02/25 04:00:28;;;;;;;19.40;2.75;;;;;;;3.57;100.00;100960.47;5218754;28;20581;-76
2023/02/25 04:02:59;;;;;;;18.27;3.30;;;;;;;3.61;100.00;100964.56;5205461;28;20049;-75
2023/02/25 04:05:30;;;;;;;24.90;2.47;;;;;;;3.61;100.00;100967.22;5215204;28;20017;-75
2023/02/25 04:08:01;;;;;;;12.10;2.15;;;;;;;3.61;100.00;100969.84;5224748;28;20021;-75
2023/02/25 04:10:33;;;;;;;20.77;3.53;;;;;;;3.63;100.00;100960.84;5225309;28;20021;-75
2023/02/25 04:13:04;;;;;;;23.27;2.05;;;;;;;3.68;100.00;100964.94;5207773;28;20021;-75
2023/02/25 04:15:35;;;;;;;13.77;2.08;;;;;;;3.63;100.00;100968.78;5225440;28;20027;-75
2023/02/25 04:18:06;;;;;;;15.50;2.22;;;;;;;3.69;100.00;100966.63;5207432;28;20477;-75
2023/02/25 04:20:37;;;;;;;19.05;2.67;;;;;;;3.71;100.00;100962.88;5225383;28;20029;-75
2023/02/25 04:23:12;;;;;;;18.02;2.13;;;;;;;3.70;100.00;100963.00;5224980;28;20166;-75
2023/02/25 04:25:43;;;;;;;12.50;1.83;;;;;;;3.75;100.00;100972.28;5207075;28;20095;-75
2023/02/25 04:28:13;;;;;;;30.77;3.42;;;;;;;3.75;100.00;100969.63;5207077;28;20036;-75
2023/02/25 04:30:44;;;;;;;17.08;2.80;;;;;;;3.85;100.00;100981.22;5225515;28;20024;-75
2023/02/25 04:33:14;;;;;;;13.40;1.88;;;;;;;3.89;100.00;100981.84;5224861;28;20489;-75
2023/02/25 04:35:45;;;;;;;15.80;2.03;;;;;;;3.93;100.00;100985.09;5225356;28;20048;-75
2023/02/25 04:38:15;;;;;;;14.75;1.98;;;;;;;3.94;100.00;100982.31;5224855;28;20017;-75
2023/02/25 04:40:45;;;;;;;11.30;2.10;;;;;;;3.92;100.00;100992.22;5224215;28;20116;-75
2023/02/25 04:43:16;;;;;;;15.68;2.08;;;;;;;3.94;100.00;100986.78;5225211;28;20029;-75
2023/02/25 04:45:46;;;;;;;17.17;2.65;;;;;;;3.94;100.00;100981.47;5225365;28;20128;-75
2023/02/25 04:48:22;;;;;;;17.55;2.20;;;;;;;3.96;100.00;100982.19;5224631;28;20020;-75
2023/02/25 04:50:53;;;;;;;15.65;1.90;;;;;;;3.95;100.00;100986.66;5206318;28;20028;-75
2023/02/25 04:53:23;;;;;;;18.60;2.78;;;;;;;3.96;100.00;100995.47;5224312;28;20021;-75
2023/02/25 04:55:54;;;;;;;15.60;2.08;;;;;;;3.99;100.00;100989.94;5207723;28;20036;-75
2023/02/25 04:58:24;;;;;;;19.73;2.13;;;;;;;3.98;100.00;100993.56;5223472;28;20025;-75
2023/02/25 05:00:56;;;;;;;10.93;1.55;;;;;;;3.94;100.00;100990.28;5224975;28;20036;-75
2023/02/25 05:03:27;;;;;;;20.00;4.00;;;;;;;3.98;100.00;100998.88;5216986;28;20025;-75
2023/02/25 05:05:58;;;;;;;9.98;1.58;;;;;;;3.94;100.00;101000.91;5200264;28;20428;-75
2023/02/25 05:08:29;;;;;;;14.80;1.90;;;;;;;3.93;100.00;101009.00;5224419;28;20027;-75
2023/02/25 05:11:00;;;;;;;14.85;1.77;;;;;;;3.92;100.00;100992.22;5223776;28;20046;-75
2023/02/25 05:13:31;;;;;;;12.23;1.95;;;;;;;3.90;100.00;100994.13;5224894;28;20027;-75
2023/02/25 05:16:19;;;;;;;9.57;1.85;;;;;;;3.92;100.00;100996.69;5224303;28;20025;-75
2023/02/25 05:18:49;;;;;;;11.63;1.85;;;;;;;3.89;100.00;100997.75;5224449;28;20029;-75
2023/02/25 05:21:22;;;;;;;12.63;2.58;;;;;;;3.89;100.00;101005.72;5224502;28;20110;-75
2023/02/25 05:23:53;;;;;;;20.25;2.45;;;;;;;3.87;100.00;101000.56;5224347;28;20025;-75
2023/02/25 05:26:24;;;;;;;12.95;2.00;;;;;;;3.86;100.00;101006.78;5206082;28;20214;-75
2023/02/25 05:28:56;;;;;;;13.77;3.85;;;;;;;3.86;100.00;101000.66;5224466;28;20032;-75
2023/02/25 05:31:26;;;;;;;17.20;2.17;;;;;;;3.86;100.00;101003.31;5224394;28;20048;-75
2023/02/25 05:33:57;;;;;;;12.30;1.63;;;;;;;3.87;100.00;100999.72;5190354;28;20024;-75
2023/02/25 05:36:28;;;;;;;20.00;2.50;;;;;;;3.87;100.00;101002.34;5224024;28;20021;-75
2023/02/25 05:39:02;;;;;;;15.57;2.67;;;;;;;3.87;100.00;101002.34;5206493;28;20120;-75
2023/02/25 05:41:32;;;;;;;7.97;1.77;;;;;;;3.83;100.00;101001.75;5224467;28;20024;-75
2023/02/25 05:44:03;;;;;;;7.07;1.80;;;;;;;3.82;100.00;101000.06;5224117;28;20023;-75
2023/02/25 05:46:34;;;;;;;11.27;1.90;;;;;;;3.73;100.00;100998.13;5226512;28;20483;-75
2023/02/25 05:49:04;;;;;;;8.10;1.52;;;;;;;3.62;100.00;100993.63;5224143;28;20079;-75
2023/02/25 05:51:35;;;;;;;6.95;1.70;;;;;;;3.61;100.00;100994.59;5223881;28;20033;-75
2023/02/25 05:54:05;;;;;;;11.02;1.90;;;;;;;3.60;100.00;100989.41;5224196;28;20024;-75
2023/02/25 05:56:36;;;;;;;11.20;1.55;;;;;;;3.62;100.00;100990.16;5223541;28;20024;-75
2023/02/25 05:59:06;;;;;;;15.52;1.95;;;;;;;3.64;100.00;100980.25;5223904;28;20044;-75
2023/02/25 06:01:37;;;;;;;10.65;1.65;;;;;;;3.64;100.00;100986.41;5223666;28;20053;-75
2023/02/25 06:04:08;;;;;;;11.85;1.85;;;;;;;3.65;100.00;100984.59;5223994;28;20028;-75
2023/02/25 06:06:38;;;;;;;14.10;2.00;;;;;;;3.62;100.00;100990.16;5223519;28;20079;-75
2023/02/25 06:09:09;;;;;;;12.70;2.78;;;;;;;3.60;100.00;101006.16;5223820;28;20473;-75
2023/02/25 06:11:39;;;;;;;10.45;1.80;;;;;;;3.64;100.00;101004.97;5226471;28;20027;-74
2023/02/25 06:14:10;;;;;;;8.73;1.60;;;;;;;3.65;100.00;101011.13;5223740;28;20356;-75
2023/02/25 06:16:41;;;;;;;14.20;2.22;;;;;;;3.64;100.00;101004.97;5224048;28;20025;-75
2023/02/25 06:19:12;;;;;;;11.60;2.13;;;;;;;3.60;100.00;101006.16;5223126;28;20065;-75
2023/02/25 06:21:43;;;;;;;7.78;2.03;;;;;;;3.59;100.00;101014.25;5223776;28;20550;-75
2023/02/25 06:24:15;;;;;;;11.52;1.40;;;;;;;3.55;100.00;101013.63;5223620;28;20100;-75
2023/02/25 06:26:45;;;;;;;19.27;1.73;;;;;;;3.54;100.00;101008.44;5222335;28;20029;-75
2023/02/25 06:29:17;;;;;;;18.27;2.38;;;;;;;3.49;100.00;101007.94;5224002;28;20045;-75
2023/02/25 06:31:48;;;;;;;15.40;2.10;;;;;;;3.46;100.00;101014.31;5223855;28;20444;-75
2023/02/25 06:34:22;;;;;;;13.50;2.13;;;;;;;3.46;100.00;101016.97;5224091;28;20413;-75
2023/02/25 06:36:52;;;;;;;21.02;2.22;;;;;;;3.47;100.00;101031.94;5227333;28;20378;-75
2023/02/25 06:39:23;;;;;;;9.02;2.22;;;;;;;3.46;100.00;101032.88;5227482;28;20028;-75
2023/02/25 06:41:54;;;;;;;16.55;2.20;;;;;;;3.48;100.00;101038.94;5227760;28;20024;-75
2023/02/25 06:44:25;;;;;;;17.73;3.88;;;;;;;3.47;100.00;101045.22;5227692;28;20028;-75
2023/02/25 06:46:56;;;;;;;16.38;2.60;;;;;;;3.49;100.00;101045.94;5227302;28;20078;-75
2023/02/25 06:49:28;;;;;;;14.35;3.38;;;;;;;3.53;100.00;101044.75;5227366;28;20501;-74
2023/02/25 06:51:59;;;;;;;13.38;2.08;;;;;;;3.57;100.00;101043.56;5227481;28;20033;-75
2023/02/25 06:54:29;;;;;;;16.83;2.60;;;;;;;3.62;100.00;101051.16;5227653;28;20432;-75
2023/02/25 06:57:03;;;;;;;13.23;2.05;;;;;;;3.61;100.00;101049.44;5227090;28;20086;-76
2023/02/25 06:59:34;;;;;;;13.93;2.20;;;;;;;3.61;100.00;101047.66;5192688;28;20481;-75
2023/02/25 07:02:07;;;;;;;20.02;4.30;;;;;;;3.64;100.00;101047.41;5193301;28;20025;-75
2023/02/25 07:04:38;;;;;;;10.05;1.95;;;;;;;3.69;100.00;101047.06;5227381;28;20029;-75
2023/02/25 07:07:09;;;;;;;22.95;3.97;;;;;;;3.81;100.00;101048.78;5209666;28;20083;-75
2023/02/25 07:09:39;;;;;;;15.63;2.72;;;;;;;3.91;100.00;101054.22;5226426;28;20016;-75
2023/02/25 07:12:10;;;;;;;13.65;2.42;;;;;;;4.01;100.00;101054.34;5227512;28;20029;-75
2023/02/25 07:14:41;;;;;;;13.63;2.10;;;;;;;4.13;100.00;101061.38;5226639;28;20112;-75
2023/02/25 07:17:12;;;;;;;17.17;2.88;;;;;;;4.50;100.00;101059.31;5209241;28;20065;-76
2023/02/25 07:19:43;;;;;;;9.43;1.95;;;;;;;4.82;100.00;101059.41;5226476;28;20033;-75
2023/02/25 07:22:15;;;;;;;19.00;2.17;;;;;;;5.00;100.00;101061.53;5227218;28;20048;-75
2023/02/25 07:24:45;;;;;;;19.15;2.78;;;;;;;5.16;100.00;101062.81;5209186;28;20287;-75
2023/02/25 07:27:19;;;;;;;9.63;2.83;;;;;;;5.22;100.00;101069.47;5226295;28;20392;-76
2023/02/25 07:29:49;;;;;;;11.70;2.03;;;;;;;5.31;100.00;101071.34;5226919;28;20025;-75
2023/02/25 07:32:20;;;;;;;12.75;2.42;;;;;;;5.42;100.00;101067.78;5209049;28;20033;-76
2023/02/25 07:34:50;;;;;;;15.90;2.45;;;;;;;5.48;100.00;101077.94;5209437;28;20115;-75
2023/02/25 07:37:21;;;;;;;12.93;3.00;;;;;;;5.57;100.00;101071.00;5226612;28;20037;-76
2023/02/25 07:39:51;;;;;;;9.25;2.67;;;;;;;5.53;100.00;101077.56;5226496;28;20037;-75
2023/02/25 07:42:22;;;;;;;17.40;2.28;;;;;;;5.60;100.00;101076.91;5226555;28;20074;-75
2023/02/25 07:44:52;;;;;;;18.48;2.40;;;;;;;5.59;100.00;101069.06;5226438;28;20032;-75
2023/02/25 07:47:23;;;;;;;21.83;3.00;;;;;;;5.56;100.00;101078.13;5226473;28;20068;-76
2023/02/25 07:49:53;;;;;;;20.40;3.10;;;;;;;5.70;100.00;101079.66;5208238;28;20072;-76
2023/02/25 07:52:24;;;;;;;14.55;2.95;;;;;;;5.94;100.00;101080.28;5226382;28;20033;-76
2023/02/25 07:54:54;;;;;;;22.33;3.97;;;;;;;6.42;100.00;101076.16;5226114;28;20021;-76
2023/02/25 07:57:26;;;;;;;16.17;2.28;;;;;;;6.82;100.00;101067.31;5208253;28;20036;-75
2023/02/25 07:59:57;;;;;;;11.70;2.70;;;;;;;6.77;100.00;101081.06;5207657;28;20485;-76
2023/02/25 08:02:27;;;;;;;12.95;3.13;;;;;;;6.83;100.00;101077.88;5207596;28;20104;-75
2023/02/25 08:04:59;;;;;;;20.40;3.90;;;;;;;6.82;100.00;101084.16;5225803;28;20043;-76
2023/02/25 08:07:30;;;;;;;14.35;2.72;;;;;;;6.97;100.00;101085.47;5226037;28;20021;-75
2023/02/25 08:10:00;;;;;;;13.82;2.60;;;;;;;7.52;100.00;101085.81;5208057;28;20027;-75
2023/02/25 08:12:31;;;;;;;20.98;2.90;;;;;;;8.16;100.00;101084.31;5226123;28;20028;-76
2023/02/25 08:15:02;;;;;;;23.80;3.45;;;;;;;8.31;100.00;101096.22;5228839;28;20021;-75
2023/02/25 08:17:33;;;;;;;15.05;2.75;;;;;;;8.37;100.00;101096.66;5225506;28;20035;-76
2023/02/25 08:20:05;;;;;;;17.20;2.70;;;;;;;8.13;100.00;101095.28;5207546;28;20024;-76
2023/02/25 08:22:35;;;;;;;12.63;2.80;;;;;;;8.22;100.00;101098.94;5236993;28;20568;-75
2023/02/25 08:25:06;;;;;;;13.18;2.13;;;;;;;8.22;100.00;101105.13;5225549;28;20108;-76
2023/02/25 08:27:40;;;;;;;17.63;2.22;;;;;;;8.31;100.00;101103.41;5208306;28;20020;-75
2023/02/25 08:30:11;;;;;;;16.88;1.95;;;;;;;8.84;100.00;101100.16;5233490;28;20052;-76
2023/02/25 08:32:41;;;;;;;16.60;2.08;;;;;;;8.82;100.00;101104.78;5225842;28;20052;-76
2023/02/25 08:35:13;;;;;;;9.38;2.25;;;;;;;8.66;100.00;101109.94;5207731;28;20063;-75
2023/02/25 08:37:44;;;;;;;14.30;2.30;;;;;;;8.24;100.00;101103.16;5224790;28;20019;-77
2023/02/25 08:40:15;;;;;;;14.55;2.30;;;;;;;8.12;100.00;101109.63;5225374;28;20029;-75
2023/02/25 08:42:45;;;;;;;17.85;2.55;;;;;;;7.71;100.00;101109.00;5222878;28;20370;-76
2023/02/25 08:45:16;;;;;;;10.88;1.70;;;;;;;7.61;100.00;101100.13;5224466;28;20024;-76
2023/02/25 08:47:46;;;;;;;19.20;2.05;;;;;;;7.16;100.00;101099.81;5225090;28;20037;-75
2023/02/25 08:50:18;;;;;;;13.27;2.05;;;;;;;7.22;100.00;101109.94;5224907;28;20107;-76
2023/02/25 08:52:49;;;;;;;18.00;1.90;;;;;;;7.05;100.00;101107.97;5224932;28;20028;-76
2023/02/25 08:55:23;;;;;;;11.32;1.75;;;;;;;6.90;100.00;101102.16;5224990;28;20025;-76
2023/02/25 08:57:54;;;;;;;14.98;1.80;;;;;;;6.75;100.00;101107.03;5224304;28;20094;-76
2023/02/25 09:00:24;;;;;;;16.30;2.75;;;;;;;6.70;100.00;101111.91;5206946;28;20024;-75
2023/02/25 09:02:55;;;;;;;11.95;1.80;;;;;;;6.36;100.00;101109.53;5206751;28;20030;-76
2023/02/25 09:05:25;;;;;;;8.07;1.70;;;;;;;6.17;100.00;101093.44;5224807;28;20074;-75
2023/02/25 09:07:59;;;;;;;18.55;2.17;;;;;;;6.21;100.00;101101.03;5224675;28;20032;-76
2023/02/25 09:10:29;;;;;;;12.95;2.22;;;;;;;6.23;100.00;101098.25;5224513;28;20017;-75
2023/02/25 09:13:00;;;;;;;14.65;1.80;;;;;;;6.27;100.00;101106.81;5224908;28;20386;-76
2023/02/25 09:15:31;;;;;;;10.15;1.85;;;;;;;6.35;100.00;101105.16;5223662;28;20029;-76
2023/02/25 09:18:02;;;;;;;14.88;2.13;;;;;;;6.44;100.00;101106.19;5206614;28;20029;-76
2023/02/25 09:20:33;;;;;;;13.80;2.08;;;;;;;6.42;100.00;101100.16;5224390;28;20442;-76
2023/02/25 09:23:04;;;;;;;17.58;2.13;;;;;;;6.53;100.00;101104.56;5224238;28;20044;-76
2023/02/25 09:25:37;;;;;;;12.07;2.58;;;;;;;6.45;100.00;101099.88;5224368;28;20025;-76
2023/02/25 09:28:09;;;;;;;12.82;2.25;;;;;;;6.42;100.00;101100.97;5223742;28;20037;-76
2023/02/25 09:30:39;;;;;;;15.93;2.55;;;;;;;6.49;100.00;101101.31;5206472;28;20029;-76
2023/02/25 09:33:10;;;;;;;16.60;2.13;;;;;;;6.56;100.00;101110.44;5224477;28;20552;-76
2023/02/25 09:35:41;;;;;;;9.15;2.20;;;;;;;6.58;100.00;101118.34;5223947;28;20402;-76
2023/02/25 09:38:11;;;;;;;15.60;2.08;;;;;;;7.12;100.00;101111.75;5205792;28;20029;-75
2023/02/25 09:40:45;;;;;;;11.00;2.28;;;;;;;7.61;100.00;101107.31;5205784;28;20059;-76
2023/02/25 09:43:31;;;;;;;13.55;3.22;;;;;;;8.08;100.00;101126.09;5224102;28;20039;-76
2023/02/25 09:46:05;;;;;;;;;;;;;;;8.67;100.00;101120.47;5224052;28;20021;-76
2023/02/25 09:48:43;;;;;;;13.00;2.25;;;;;;;8.88;100.00;101114.88;5223540;28;19909;-76
2023/02/25 09:51:35;;;;;;;9.52;2.65;;;;;;;8.82;100.00;101118.16;5224069;28;20378;-77
2023/02/25 09:54:29;;;;;;;17.80;2.53;;;;;;;8.97;100.00;101118.50;5212679;28;20035;-76
2023/02/25 09:57:03;;;;;;;14.65;1.80;;;;;;;9.31;100.00;101127.59;5223559;28;20024;-76
2023/02/25 09:59:37;;;;;;;18.77;2.30;;;;;;;9.56;100.00;101128.69;5223308;28;20546;-76
2023/02/25 10:02:35;;;;;;;15.70;2.70;;;;;;;9.55;100.00;101121.66;5222896;28;20802;-76
2023/02/25 10:05:14;;;;;;;12.68;2.58;;;;;;;9.63;100.00;101136.94;5210285;28;20040;-76
2023/02/25 10:07:58;;;;;;;16.58;2.92;;;;;;;9.48;100.00;101130.44;5223045;28;20204;-76
2023/02/25 10:10:48;;;;;;;21.67;2.13;;;;;;;9.38;100.00;101135.84;5222564;28;20032;-76
2023/02/25 10:13:34;;;;;;;18.00;2.22;;;;;;;8.37;100.00;101150.97;5210577;28;20039;-76
2023/02/25 10:16:21;;;;;;;19.98;2.42;;;;;;;8.02;100.00;101138.22;5222973;28;20106;-76
2023/02/25 10:19:12;;;;;;;15.45;2.28;;;;;;;8.04;100.00;101150.44;5215704;28;20086;-76
2023/02/25 10:21:50;;;;;;;21.25;2.95;;;;;;;7.99;100.00;101143.84;5211178;28;20493;-76
2023/02/25 10:24:44;;;;;;;16.88;2.85;;;;;;;7.99;100.00;101158.06;5223031;28;20021;-75
2023/02/25 10:27:36;;;;;;;13.32;2.88;;;;;;;8.12;100.00;101157.75;5205489;28;20017;-75
2023/02/25 10:30:30;;;;;;;10.45;2.78;;;;;;;8.19;100.00;101150.03;5223139;28;20545;-76
2023/02/25 10:33:23;;;;;;;15.43;2.15;;;;;;;8.57;100.00;101157.94;5215973;28;20040;-75
2023/02/25 10:36:09;;;;;;;14.55;2.83;;;;;;;8.74;100.00;101160.88;5195511;28;20028;-76
2023/02/25 10:38:58;;;;;;;;;;;;;;;8.41;100.00;101151.53;5205563;28;20043;-75
2023/02/25 10:41:30;;;;;;;12.32;2.33;;;;;;;8.10;100.00;101154.38;5222315;28;19909;-76
2023/02/25 10:44:00;;;;;;;10.48;2.72;;;;;;;8.11;100.00;101155.22;5204799;28;20584;-76
2023/02/25 10:46:39;;;;;;;15.00;2.50;;;;;;;8.18;100.00;101153.66;5222097;28;20017;-76
2023/02/25 10:49:19;;;;;;;17.10;3.38;;;;;;;7.98;100.00;101153.69;5204664;28;20032;-76
2023/02/25 10:52:26;;;;;;;23.65;3.22;;;;;;;7.57;100.00;101157.47;5221370;28;20041;-73
2023/02/25 10:54:58;;;;;;;22.52;2.92;;;;;;;7.32;100.00;101161.50;5218148;28;20714;-73
2023/02/25 10:57:40;;;;;;;15.77;2.20;;;;;;;7.20;100.00;101162.63;5222424;28;20025;-73
2023/02/25 11:00:26;;;;;;;14.23;2.53;;;;;;;7.13;100.00;101161.47;5188744;28;20551;-72
2023/02/25 11:03:00;;;;;;;23.60;3.22;;;;;;;7.11;100.00;101160.75;5220979;28;20048;-73
2023/02/25 11:05:49;;;;;;;13.82;2.80;;;;;;;7.10;100.00;101162.59;5212409;28;20052;-73
2023/02/25 11:08:38;;;;;;;15.70;3.25;;;;;;;7.13;100.00;101162.31;5222253;28;20033;-73
2023/02/25 11:11:31;;;;;;;17.48;3.03;;;;;;;7.08;100.00;101161.03;5222788;28;20032;-73
2023/02/25 11:14:27;;;;;;;12.20;2.28;;;;;;;7.01;100.00;101150.91;5223087;28;20025;-73
2023/02/25 11:17:27;;;;;;;13.35;2.20;;;;;;;6.92;100.00;101151.72;5188532;28;20020;-73
2023/02/25 11:20:01;;;;;;;18.98;2.58;;;;;;;6.85;100.00;101155.06;5209589;28;20108;-73
2023/02/25 11:22:38;;;;;;;20.35;3.85;;;;;;;6.74;100.00;101154.19;5209472;28;20043;-72
2023/02/25 11:25:34;;;;;;;17.33;3.40;;;;;;;6.57;100.00;101162.78;5209672;28;20486;-73
2023/02/25 11:28:15;;;;;;;13.77;3.50;;;;;;;6.32;100.00;101164.03;5215330;28;20389;-75
2023/02/25 11:30:46;;;;;;;16.48;2.75;;;;;;;6.04;100.00;101170.88;5210056;28;20039;-75
2023/02/25 11:33:37;;;;;;;16.05;2.90;;;;;;;5.79;100.00;101172.06;5212353;28;20020;-75
2023/02/25 11:36:09;;;;;;;21.10;3.10;;;;;;;5.59;100.00;101163.06;5227341;28;20032;-75
2023/02/25 11:38:41;;;;;;;19.73;3.75;;;;;;;5.41;100.00;101164.56;5226366;28;20106;-75
2023/02/25 11:41:22;;;;;;;20.92;2.97;;;;;;;5.39;100.00;101167.34;5226375;28;20610;-75
2023/02/25 11:43:56;;;;;;;17.98;4.15;;;;;;;5.38;100.00;101173.66;5226387;28;20037;-75
2023/02/25 11:46:31;;;;;;;23.95;4.75;;;;;;;5.37;100.00;101171.97;5237099;28;20021;-75
2023/02/25 11:49:29;;;;;;;24.60;4.68;;;;;;;5.49;100.00;101170.09;5209075;28;20079;-76
2023/02/25 11:52:11;;;;;;;21.77;3.85;;;;;;;5.92;100.00;101171.91;5226121;28;20485;-76
2023/02/25 11:54:57;;;;;;;18.75;3.72;;;;;;;6.29;100.00;101174.97;5209402;28;20029;-75
2023/02/25 11:57:57;;;;;;;18.70;3.20;;;;;;;6.64;100.00;101171.97;5208292;28;20029;-76
2023/02/25 12:01:04;;;;;;;19.05;2.75;;;;;;;7.08;100.00;101166.34;5214281;28;20025;-75